createdAt,value
2023-03-12T00:01:22.835Z,21.20
2023-03-12T00:03:50.302Z,21.03
2023-03-12T00:06:18.638Z,20.47
2023-03-12T00:08:45.384Z,20.87
2023-03-12T00:11:15.083Z,20.87
2023-03-12T00:13:42.252Z,30.23
2023-03-12T00:16:14.344Z,19.57
2023-03-12T00:18:41.990Z,20.40
2023-03-12T00:21:09.154Z,18.70
2023-03-12T00:23:36.384Z,20.67
2023-03-12T00:26:11.889Z,19.50
2023-03-12T00:28:39.741Z,20.90
2023-03-12T00:31:17.229Z,19.70
2023-03-12T00:33:44.287Z,20.60
2023-03-12T00:36:11.237Z,19.60
2023-03-12T00:38:38.026Z,18.83
2023-03-12T00:41:04.878Z,14.87
2023-03-12T00:43:31.774Z,17.87
2023-03-12T00:45:58.529Z,15.93
2023-03-12T00:48:25.363Z,15.73
2023-03-12T00:50:52.358Z,18.10
2023-03-12T00:53:19.184Z,16.03
2023-03-12T00:55:46.080Z,17.23
2023-03-12T00:58:12.944Z,15.47
2023-03-12T01:00:39.686Z,16.03
2023-03-12T01:03:06.528Z,19.33
2023-03-12T01:05:37.675Z,15.27
2023-03-12T01:08:05.461Z,17.17
2023-03-12T01:10:32.312Z,15.77
2023-03-12T01:12:59.547Z,19.17
2023-03-12T01:15:26.506Z,16.43
2023-03-12T01:17:53.189Z,17.77
2023-03-12T01:20:20.072Z,17.27
2023-03-12T01:22:46.766Z,18.03
2023-03-12T01:25:13.729Z,21.10
2023-03-12T01:27:40.437Z,18.70
2023-03-12T01:30:07.809Z,20.77
2023-03-12T01:32:34.635Z,20.13
2023-03-12T01:35:01.529Z,18.77
2023-03-12T01:37:28.516Z,19.47
2023-03-12T01:39:55.314Z,18.17
2023-03-12T01:42:22.154Z,20.57
2023-03-12T01:44:54.981Z,20.33
2023-03-12T01:47:21.929Z,21.03
2023-03-12T01:49:50.957Z,22.50
2023-03-12T01:52:21.223Z,19.00
2023-03-12T01:55:03.315Z,19.20
2023-03-12T01:57:50.667Z,16.83
2023-03-12T02:00:21.636Z,19.17
2023-03-12T02:02:49.619Z,17.53
2023-03-12T02:05:28.859Z,20.07
2023-03-12T02:07:57.261Z,19.70
2023-03-12T02:10:25.233Z,20.47
2023-03-12T02:12:52.727Z,17.97
2023-03-12T02:15:19.858Z,17.70
2023-03-12T02:17:46.743Z,21.50
2023-03-12T02:20:21.458Z,21.43
2023-03-12T02:22:55.974Z,19.90
2023-03-12T02:25:37.388Z,18.53
2023-03-12T02:28:08.569Z,17.27
2023-03-12T02:30:36.685Z,17.67
2023-03-12T02:33:07.852Z,17.60
2023-03-12T02:35:35.541Z,20.50
2023-03-12T02:38:03.377Z,18.53
2023-03-12T02:40:44.219Z,19.53
2023-03-12T02:43:11.452Z,20.23
2023-03-12T02:45:38.963Z,18.07
2023-03-12T02:48:09.074Z,21.33
2023-03-12T02:50:35.931Z,23.77
2023-03-12T02:53:02.623Z,22.30
2023-03-12T02:55:29.315Z,22.30
2023-03-12T02:57:56.072Z,24.77
2023-03-12T03:00:22.918Z,20.70
2023-03-12T03:02:50.020Z,21.03
2023-03-12T03:05:16.959Z,18.97
2023-03-12T03:07:43.771Z,20.17
2023-03-12T03:10:11.104Z,24.83
2023-03-12T03:12:37.965Z,21.50
2023-03-12T03:15:05.542Z,19.33
2023-03-12T03:17:32.315Z,19.07
2023-03-12T03:19:59.078Z,19.27
2023-03-12T03:22:25.838Z,19.03
2023-03-12T03:24:53.935Z,22.03
2023-03-12T03:27:20.778Z,23.60
2023-03-12T03:29:47.518Z,19.50
2023-03-12T03:32:14.421Z,25.63
2023-03-12T03:34:41.172Z,21.63
2023-03-12T03:37:08.299Z,22.73
2023-03-12T03:39:35.055Z,21.60
2023-03-12T03:42:01.758Z,21.53
2023-03-12T03:44:28.627Z,29.43
2023-03-12T03:46:55.464Z,22.87
2023-03-12T03:49:23.196Z,21.27
2023-03-12T03:51:51.801Z,25.90
2023-03-12T03:54:19.221Z,21.43
2023-03-12T03:56:46.153Z,27.30
2023-03-12T03:59:12.951Z,22.77
2023-03-12T04:01:39.902Z,19.90
2023-03-12T04:04:06.620Z,24.77
2023-03-12T04:06:33.914Z,19.73
2023-03-12T04:09:00.814Z,21.67
2023-03-12T04:11:28.125Z,28.23
2023-03-12T04:13:54.876Z,20.90
2023-03-12T04:16:21.630Z,25.13
2023-03-12T04:18:48.385Z,24.67
2023-03-12T04:21:15.439Z,21.33
2023-03-12T04:23:42.294Z,20.53
2023-03-12T04:26:09.534Z,21.27
2023-03-12T04:28:37.085Z,26.63
2023-03-12T04:31:06.589Z,27.30
2023-03-12T04:33:36.538Z,20.83
2023-03-12T04:36:03.922Z,21.63
2023-03-12T04:38:31.122Z,21.57
2023-03-12T04:41:07.432Z,26.83
2023-03-12T04:43:35.059Z,21.37
2023-03-12T04:46:02.691Z,22.87
2023-03-12T04:48:29.557Z,20.97
2023-03-12T04:50:56.495Z,22.63
2023-03-12T04:53:24.149Z,24.43
2023-03-12T04:55:51.624Z,19.87
2023-03-12T04:58:19.461Z,26.00
2023-03-12T05:00:47.784Z,26.93
2023-03-12T05:03:14.978Z,27.83
2023-03-12T05:05:41.781Z,28.43
2023-03-12T05:08:08.571Z,23.70
2023-03-12T05:10:35.883Z,22.73
2023-03-12T05:13:02.655Z,25.37
2023-03-12T05:15:29.357Z,24.83
2023-03-12T05:17:56.222Z,22.00
2023-03-12T05:20:23.005Z,26.63
2023-03-12T05:22:49.720Z,24.03
2023-03-12T05:25:16.525Z,21.43
2023-03-12T05:27:43.405Z,16.63
2023-03-12T05:30:10.830Z,22.77
2023-03-12T05:32:38.702Z,24.47
2023-03-12T05:35:05.881Z,23.00
2023-03-12T05:37:32.627Z,24.53
2023-03-12T05:40:00.662Z,23.30
2023-03-12T05:42:27.510Z,27.47
2023-03-12T05:44:54.297Z,24.53
2023-03-12T05:47:21.592Z,19.70
2023-03-12T05:49:48.331Z,19.63
2023-03-12T05:52:15.142Z,23.27
2023-03-12T05:54:41.876Z,25.70
2023-03-12T05:57:08.713Z,23.33
2023-03-12T05:59:35.751Z,16.53
2023-03-12T06:02:02.755Z,22.53
2023-03-12T06:04:29.784Z,27.20
2023-03-12T06:06:56.570Z,30.20
2023-03-12T06:09:23.431Z,29.43
2023-03-12T06:11:50.192Z,28.47
2023-03-12T06:14:17.125Z,29.70
2023-03-12T06:16:44.144Z,31.03
2023-03-12T06:19:14.124Z,30.00
2023-03-12T06:21:42.934Z,36.83
2023-03-12T06:24:10.475Z,31.60
2023-03-12T06:26:37.374Z,34.40
2023-03-12T06:29:04.283Z,32.07
2023-03-12T06:31:31.120Z,32.00
2023-03-12T06:33:58.054Z,33.87
2023-03-12T06:36:25.495Z,31.87
2023-03-12T06:38:52.279Z,38.00
2023-03-12T06:41:21.025Z,32.63
2023-03-12T06:43:48.530Z,36.80
2023-03-12T06:46:17.829Z,26.27
2023-03-12T06:48:46.520Z,35.17
2023-03-12T06:51:15.963Z,35.70
2023-03-12T06:53:43.005Z,30.40
2023-03-12T06:56:10.924Z,36.80
2023-03-12T06:58:38.021Z,33.17
2023-03-12T07:01:05.458Z,41.90
2023-03-12T07:03:32.871Z,33.63
2023-03-12T07:06:00.320Z,30.77
2023-03-12T07:08:31.436Z,30.70
2023-03-12T07:11:01.816Z,31.93
2023-03-12T07:13:29.169Z,34.20
2023-03-12T07:15:55.990Z,32.53
2023-03-12T07:18:22.861Z,28.90
2023-03-12T07:20:49.646Z,37.17
2023-03-12T07:23:16.618Z,33.33
2023-03-12T07:25:44.326Z,29.73
2023-03-12T07:28:12.393Z,32.30
2023-03-12T07:30:39.865Z,35.57
2023-03-12T07:33:12.059Z,37.13
2023-03-12T07:35:39.990Z,31.83
2023-03-12T07:38:07.683Z,33.77
2023-03-12T07:40:35.237Z,32.50
2023-03-12T07:43:06.726Z,33.23
2023-03-12T07:45:33.488Z,32.97
2023-03-12T07:48:00.236Z,30.00
2023-03-12T07:50:27.151Z,31.60
2023-03-12T07:52:53.897Z,34.57
2023-03-12T07:55:20.772Z,38.83
2023-03-12T07:57:47.624Z,32.03
2023-03-12T08:00:15.371Z,35.30
2023-03-12T08:02:42.332Z,34.07
2023-03-12T08:05:09.713Z,43.23
2023-03-12T08:07:36.662Z,28.53
2023-03-12T08:10:06.798Z,32.70
2023-03-12T08:12:33.957Z,27.67
2023-03-12T08:15:01.038Z,24.60
2023-03-12T08:17:29.056Z,35.27
2023-03-12T08:19:57.511Z,28.50
2023-03-12T08:22:24.283Z,34.07
2023-03-12T08:24:51.120Z,24.53
2023-03-12T08:27:17.867Z,30.53
2023-03-12T08:29:44.617Z,30.33
2023-03-12T08:32:11.340Z,34.03
2023-03-12T08:34:38.487Z,26.63
2023-03-12T08:37:06.018Z,30.17
2023-03-12T08:39:33.550Z,31.40
2023-03-12T08:42:00.939Z,29.90
2023-03-12T08:44:27.725Z,31.67
2023-03-12T08:46:54.607Z,21.27
2023-03-12T08:49:22.099Z,26.83
2023-03-12T08:51:49.206Z,33.27
2023-03-12T08:54:15.931Z,27.17
2023-03-12T08:56:43.665Z,27.77
2023-03-12T08:59:13.824Z,27.57
2023-03-12T09:01:43.604Z,24.67
2023-03-12T09:04:11.038Z,28.43
2023-03-12T09:06:38.552Z,25.50
2023-03-12T09:09:05.945Z,25.10
2023-03-12T09:11:34.304Z,32.83
2023-03-12T09:14:39.463Z,30.40
2023-03-12T09:16:49.530Z,26.13
2023-03-12T09:19:16.662Z,27.43
2023-03-12T09:21:43.562Z,20.07
2023-03-12T09:24:11.352Z,27.20
2023-03-12T09:26:38.077Z,25.33
2023-03-12T09:29:04.918Z,26.47
2023-03-12T09:31:32.637Z,29.13
2023-03-12T09:33:59.397Z,32.70
2023-03-12T09:36:26.179Z,26.50
2023-03-12T09:38:52.930Z,29.37
2023-03-12T09:41:32.091Z,20.23
2023-03-12T09:44:10.770Z,21.23
2023-03-12T09:46:51.211Z,25.37
2023-03-12T09:49:26.631Z,20.50
2023-03-12T09:51:56.862Z,28.37
2023-03-12T09:54:58.641Z,16.30
2023-03-12T09:57:27.530Z,27.00
2023-03-12T09:59:54.396Z,17.93
2023-03-12T10:02:35.926Z,17.33
2023-03-12T10:05:12.011Z,21.47
2023-03-12T10:07:48.520Z,19.50
2023-03-12T10:10:35.170Z,19.73
2023-03-12T10:13:35.881Z,22.00
2023-03-12T10:16:16.575Z,21.93
2023-03-12T10:18:58.904Z,23.87
2023-03-12T10:21:37.660Z,24.37
2023-03-12T10:24:13.573Z,20.27
2023-03-12T10:26:45.775Z,22.90
2023-03-12T10:29:26.733Z,26.37
2023-03-12T10:32:11.574Z,19.10
2023-03-12T10:34:45.757Z,26.27
2023-03-12T10:37:37.197Z,20.60
2023-03-12T10:40:05.983Z,19.80
2023-03-12T10:42:33.264Z,20.50
2023-03-12T10:45:16.304Z,20.00
2023-03-12T10:47:48.623Z,19.60
2023-03-12T10:50:20.031Z,22.47
2023-03-12T10:52:48.783Z,22.73
2023-03-12T10:55:30.082Z,27.47
2023-03-12T10:57:57.953Z,23.70
2023-03-12T11:00:30.320Z,19.83
2023-03-12T11:03:03.793Z,16.03
2023-03-12T11:05:31.917Z,20.47
2023-03-12T11:08:01.680Z,22.17
2023-03-12T11:10:45.756Z,20.80
2023-03-12T11:13:39.904Z,18.47
2023-03-12T11:16:19.438Z,18.90
2023-03-12T11:19:04.091Z,16.90
2023-03-12T11:21:33.506Z,23.23
2023-03-12T11:24:00.186Z,18.53
2023-03-12T11:26:45.847Z,21.87
2023-03-12T11:29:23.919Z,19.00
2023-03-12T11:32:14.933Z,21.10
2023-03-12T11:34:42.453Z,20.03
2023-03-12T11:37:14.788Z,22.30
2023-03-12T11:40:09.843Z,23.43
2023-03-12T11:42:54.628Z,21.40
2023-03-12T11:45:31.514Z,20.10
2023-03-12T11:48:04.260Z,16.27
2023-03-12T11:51:00.521Z,22.87
2023-03-12T11:53:36.484Z,19.20
2023-03-12T11:56:18.596Z,19.33
2023-03-12T11:59:12.921Z,18.20
2023-03-12T12:01:55.010Z,19.47
2023-03-12T12:04:53.958Z,18.60
2023-03-12T12:07:39.433Z,21.30
2023-03-12T12:10:24.822Z,19.53
2023-03-12T12:13:13.212Z,24.27
2023-03-12T12:16:08.964Z,16.90
2023-03-12T12:19:04.391Z,19.07
2023-03-12T12:21:31.247Z,22.13
2023-03-12T12:24:18.254Z,21.67
2023-03-12T12:26:57.321Z,17.27
2023-03-12T12:29:59.616Z,14.70
2023-03-12T12:32:32.928Z,15.73
2023-03-12T12:35:29.042Z,16.17
2023-03-12T12:38:00.005Z,17.50
2023-03-12T12:40:34.450Z,14.20
2023-03-12T12:43:19.807Z,16.30
2023-03-12T12:45:50.901Z,16.77
2023-03-12T12:48:28.749Z,16.47
2023-03-12T12:51:00.055Z,18.23
2023-03-12T12:53:35.693Z,15.60
2023-03-12T12:56:20.196Z,15.87
2023-03-12T12:59:08.514Z,20.90
2023-03-12T13:01:36.758Z,15.87
2023-03-12T13:04:12.054Z,17.67
2023-03-12T13:06:54.069Z,14.87
2023-03-12T13:09:23.806Z,16.30
2023-03-12T13:11:51.735Z,19.67
2023-03-12T13:14:35.593Z,18.87
2023-03-12T13:17:19.751Z,22.07
2023-03-12T13:19:55.541Z,24.10
2023-03-12T13:22:40.345Z,19.07
2023-03-12T13:25:26.582Z,16.73
2023-03-12T13:28:32.421Z,21.03
2023-03-12T13:31:20.069Z,23.37
2023-03-12T13:33:51.631Z,17.87
2023-03-12T13:36:23.457Z,21.53
2023-03-12T13:39:07.592Z,16.13
2023-03-12T13:41:40.148Z,18.13
2023-03-12T13:44:37.182Z,16.57
2023-03-12T13:47:28.452Z,17.87
2023-03-12T13:49:58.518Z,14.23
2023-03-12T13:52:40.504Z,16.40
2023-03-12T13:55:27.355Z,19.00
2023-03-12T13:57:55.962Z,17.50
2023-03-12T14:00:30.925Z,14.13
2023-03-12T14:03:17.366Z,21.33
2023-03-12T14:05:51.792Z,19.00
2023-03-12T14:08:51.604Z,16.50
2023-03-12T14:11:42.839Z,13.77
2023-03-12T14:14:24.565Z,17.37
2023-03-12T14:16:57.409Z,15.13
2023-03-12T14:19:27.096Z,15.80
2023-03-12T14:21:56.174Z,16.27
2023-03-12T14:24:29.532Z,15.30
2023-03-12T14:26:57.987Z,17.70
2023-03-12T14:29:39.957Z,15.47
2023-03-12T14:32:19.030Z,20.77
2023-03-12T14:34:49.853Z,18.17
2023-03-12T14:37:22.342Z,15.17
2023-03-12T14:39:59.378Z,14.63
2023-03-12T14:42:34.970Z,18.03
2023-03-12T14:45:17.996Z,14.27
2023-03-12T14:47:47.421Z,15.97
2023-03-12T14:50:23.617Z,15.40
2023-03-12T14:52:51.087Z,16.20
2023-03-12T14:55:23.046Z,19.97
2023-03-12T14:58:02.421Z,15.90
2023-03-12T15:00:29.558Z,16.87
2023-03-12T15:02:59.143Z,15.43
2023-03-12T15:05:26.840Z,16.97
2023-03-12T15:08:01.401Z,18.43
2023-03-12T15:10:29.570Z,21.10
2023-03-12T15:12:59.148Z,15.97
2023-03-12T15:15:28.817Z,17.83
2023-03-12T15:17:56.561Z,26.30
2023-03-12T15:20:25.665Z,17.80
2023-03-12T15:22:53.563Z,15.83
2023-03-12T15:25:25.113Z,15.43
2023-03-12T15:28:08.222Z,13.30
2023-03-12T15:30:36.383Z,18.17
2023-03-12T15:33:09.005Z,16.23
2023-03-12T15:35:39.068Z,20.93
2023-03-12T15:38:13.448Z,14.97
2023-03-12T15:40:40.428Z,17.50
2023-03-12T15:43:18.152Z,12.97
2023-03-12T15:45:45.126Z,19.47
2023-03-12T15:48:26.570Z,12.37
2023-03-12T15:50:53.454Z,12.63
2023-03-12T15:53:20.322Z,14.87
2023-03-12T15:56:06.543Z,16.40
2023-03-12T15:58:36.307Z,12.13
2023-03-12T16:01:17.487Z,11.53
2023-03-12T16:03:45.630Z,15.50
2023-03-12T16:06:17.739Z,12.73
2023-03-12T16:09:00.136Z,13.07
2023-03-12T16:11:32.657Z,10.80
2023-03-12T16:14:22.622Z,16.37
2023-03-12T16:16:49.569Z,15.37
2023-03-12T16:19:19.117Z,17.20
2023-03-12T16:21:46.066Z,9.87
2023-03-12T16:24:12.865Z,13.50
2023-03-12T16:27:00.159Z,10.50
2023-03-12T16:29:35.624Z,14.73
2023-03-12T16:32:09.399Z,13.07
2023-03-12T16:34:36.217Z,12.70
2023-03-12T16:37:03.315Z,13.00
2023-03-12T16:39:33.219Z,14.43
2023-03-12T16:42:05.738Z,15.53
2023-03-12T16:44:34.998Z,11.47
2023-03-12T16:47:02.244Z,15.63
2023-03-12T16:49:29.253Z,17.07
2023-03-12T16:51:55.977Z,14.23
2023-03-12T16:54:22.989Z,14.90
2023-03-12T16:56:51.010Z,10.53
2023-03-12T16:59:32.077Z,12.30
2023-03-12T17:01:58.895Z,10.17
2023-03-12T17:04:25.830Z,6.43
2023-03-12T17:06:52.614Z,4.63
2023-03-12T17:09:19.407Z,6.77
2023-03-12T17:11:46.753Z,7.60
2023-03-12T17:14:22.349Z,7.57
2023-03-12T17:16:49.654Z,8.03
2023-03-12T17:19:17.040Z,4.17
2023-03-12T17:21:44.281Z,6.20
2023-03-12T17:24:14.061Z,4.57
2023-03-12T17:26:42.950Z,7.47
2023-03-12T17:29:09.741Z,4.00
2023-03-12T17:31:37.625Z,4.33
2023-03-12T17:34:04.659Z,4.53
2023-03-12T17:36:31.575Z,4.83
2023-03-12T17:38:58.871Z,4.23
2023-03-12T17:41:27.302Z,3.43
2023-03-12T17:43:58.564Z,4.10
2023-03-12T17:46:25.446Z,6.40
2023-03-12T17:48:52.637Z,5.13
2023-03-12T17:51:20.994Z,6.03
2023-03-12T17:53:48.212Z,4.50
2023-03-12T17:56:17.903Z,4.33
2023-03-12T17:58:45.619Z,4.77
2023-03-12T18:01:13.587Z,2.57
2023-03-12T18:03:40.502Z,3.73
2023-03-12T18:06:07.759Z,4.37
2023-03-12T18:08:34.555Z,4.30
2023-03-12T18:11:02.925Z,4.50
2023-03-12T18:13:30.392Z,4.43
2023-03-12T18:15:58.468Z,4.03
2023-03-12T18:18:27.311Z,3.87
2023-03-12T18:20:54.156Z,3.27
2023-03-12T18:23:21.125Z,4.03
2023-03-12T18:25:47.915Z,4.80
2023-03-12T18:28:15.312Z,3.73
2023-03-12T18:30:42.222Z,3.90
2023-03-12T18:33:08.957Z,3.43
2023-03-12T18:35:35.936Z,6.13
2023-03-12T18:38:02.879Z,4.70
2023-03-12T18:40:30.133Z,4.57
2023-03-12T18:43:00.986Z,3.77
2023-03-12T18:45:28.482Z,3.67
2023-03-12T18:47:55.515Z,3.70
2023-03-12T18:50:22.333Z,4.87
2023-03-12T18:52:49.303Z,5.30
2023-03-12T18:55:16.235Z,5.63
2023-03-12T18:57:43.979Z,6.47
2023-03-12T19:00:14.469Z,3.87
2023-03-12T19:02:42.302Z,5.07
2023-03-12T19:05:11.007Z,6.13
2023-03-12T19:07:39.181Z,4.80
2023-03-12T19:10:07.837Z,7.53
2023-03-12T19:12:45.381Z,7.20
2023-03-12T19:15:15.976Z,5.50
2023-03-12T19:17:42.803Z,9.27
2023-03-12T19:20:10.369Z,7.63
2023-03-12T19:22:37.244Z,10.23
2023-03-12T19:25:04.273Z,9.63
2023-03-12T19:27:31.122Z,9.47
2023-03-12T19:29:57.883Z,8.47
2023-03-12T19:32:27.725Z,8.27
2023-03-12T19:35:00.167Z,7.30
2023-03-12T19:37:26.881Z,6.30
2023-03-12T19:39:53.618Z,8.60
2023-03-12T19:42:20.401Z,8.53
2023-03-12T19:44:49.268Z,7.50
2023-03-12T19:47:18.382Z,7.73
2023-03-12T19:49:45.165Z,8.13
2023-03-12T19:52:11.913Z,13.97
2023-03-12T19:54:38.874Z,8.83
2023-03-12T19:57:05.628Z,10.67
2023-03-12T19:59:32.590Z,12.40
2023-03-12T20:02:01.635Z,8.13
2023-03-12T20:04:28.834Z,8.90
2023-03-12T20:06:55.699Z,14.03
2023-03-12T20:09:22.398Z,12.77
2023-03-12T20:11:49.586Z,11.77
2023-03-12T20:14:16.421Z,9.63
2023-03-12T20:16:43.239Z,9.40
2023-03-12T20:19:10.159Z,8.93
2023-03-12T20:21:37.048Z,6.40
2023-03-12T20:24:05.190Z,6.07
2023-03-12T20:26:32.396Z,6.73
2023-03-12T20:29:05.999Z,8.27
2023-03-12T20:31:33.758Z,5.50
2023-03-12T20:34:00.507Z,6.23
2023-03-12T20:36:27.327Z,5.13
2023-03-12T20:38:54.132Z,7.80
2023-03-12T20:41:21.483Z,4.70
2023-03-12T20:43:48.411Z,6.07
2023-03-12T20:46:15.434Z,4.97
2023-03-12T20:48:42.337Z,5.57
2023-03-12T20:51:09.606Z,4.93
2023-03-12T20:53:36.353Z,6.23
2023-03-12T20:56:06.565Z,5.23
2023-03-12T20:58:33.772Z,5.13
2023-03-12T21:01:01.750Z,6.10
2023-03-12T21:03:29.266Z,5.07
2023-03-12T21:05:58.481Z,5.03
2023-03-12T21:08:25.901Z,4.00
2023-03-12T21:10:54.287Z,4.43
2023-03-12T21:13:23.246Z,4.57
2023-03-12T21:15:50.588Z,3.37
2023-03-12T21:18:18.480Z,5.20
2023-03-12T21:20:45.587Z,4.80
2023-03-12T21:23:12.481Z,4.53
2023-03-12T21:25:41.032Z,3.33
2023-03-12T21:28:09.479Z,4.03
2023-03-12T21:30:37.066Z,3.73
2023-03-12T21:33:04.093Z,2.90
2023-03-12T21:35:31.416Z,1.87
2023-03-12T21:37:59.019Z,2.07
2023-03-12T21:40:25.748Z,2.07
2023-03-12T21:42:52.506Z,1.43
2023-03-12T21:45:19.361Z,2.07
2023-03-12T21:47:46.146Z,1.50
2023-03-12T21:50:12.960Z,1.70
2023-03-12T21:52:43.357Z,1.73
2023-03-12T21:55:10.646Z,3.03
2023-03-12T21:57:37.378Z,2.10
2023-03-12T22:00:05.930Z,1.57
2023-03-12T22:02:32.809Z,1.93
2023-03-12T22:05:00.805Z,2.60
2023-03-12T22:07:30.118Z,2.87
2023-03-12T22:09:57.289Z,2.70
2023-03-12T22:12:24.416Z,2.57
2023-03-12T22:14:51.222Z,3.20
2023-03-12T22:17:18.262Z,2.60
2023-03-12T22:19:45.705Z,3.40
2023-03-12T22:22:12.452Z,2.17
2023-03-12T22:24:39.226Z,2.97
2023-03-12T22:27:07.541Z,4.07
2023-03-12T22:29:34.916Z,3.67
2023-03-12T22:32:02.093Z,3.67
2023-03-12T22:34:29.761Z,2.80
2023-03-12T22:36:56.547Z,2.90
2023-03-12T22:39:23.416Z,2.83
2023-03-12T22:41:50.731Z,3.23
2023-03-12T22:44:17.819Z,3.33
2023-03-12T22:46:44.619Z,2.83
2023-03-12T22:49:11.369Z,2.43
2023-03-12T22:51:38.133Z,2.77
2023-03-12T22:54:05.153Z,1.97
2023-03-12T22:56:31.866Z,3.73
2023-03-12T22:58:59.015Z,2.77
2023-03-12T23:01:25.928Z,2.97
2023-03-12T23:03:53.078Z,1.80
2023-03-12T23:06:22.867Z,1.90
2023-03-12T23:08:50.035Z,1.27
2023-03-12T23:11:17.779Z,1.87
2023-03-12T23:13:45.749Z,1.70
2023-03-12T23:16:16.093Z,2.10
2023-03-12T23:18:43.389Z,2.50
2023-03-12T23:21:13.408Z,2.50
2023-03-12T23:23:42.149Z,2.27
2023-03-12T23:26:21.611Z,1.47
2023-03-12T23:28:48.731Z,2.73
2023-03-12T23:31:16.366Z,1.80
2023-03-12T23:33:43.540Z,2.17
2023-03-12T23:36:16.147Z,3.30
2023-03-12T23:38:43.854Z,3.47
2023-03-12T23:41:16.708Z,3.53
2023-03-12T23:43:43.631Z,3.10
2023-03-12T23:46:11.706Z,2.43
2023-03-12T23:48:39.368Z,3.57
2023-03-12T23:51:09.056Z,5.60
2023-03-12T23:53:37.057Z,5.23
2023-03-12T23:56:06.527Z,6.37
2023-03-12T23:58:34.073Z,6.50
